Time;durP1;ratioP1;P1;durP2;ratioP2;P2;SDS_P1;SDS_P2;PMS_P1;PMS_P2;Temp;Humidity;BMP_temperature;BMP_pressure;BME280_temperature;BME280_humidity;BME280_pressure;Samples;Min_cycle;Max_cycle;Signal;HPM_P1;HPM_P2
2022/06/03 00:01:08;;;;;;;3.90;2.05;;;11.30;99.90;;;;;;5022076;28;20051;-81
2022/06/03 00:04:03;;;;;;;6.25;2.72;;;11.30;99.90;;;;;;5022183;28;20049;-81
2022/06/03 00:06:34;;;;;;;3.35;2.25;;;11.20;99.90;;;;;;5011308;28;20457;-81
2022/06/03 00:09:34;;;;;;;6.20;2.47;;;11.10;99.90;;;;;;5024937;28;20049;-81
2022/06/03 00:12:18;;;;;;;3.38;2.40;;;12.00;99.90;;;;;;5015873;28;20041;-79
2022/06/03 00:15:08;;;;;;;5.88;2.90;;;11.10;99.90;;;;;;5026149;28;20049;-80
2022/06/03 00:18:17;;;;;;;4.43;2.53;;;11.70;99.90;;;;;;5010927;28;20037;-81
2022/06/03 00:21:04;;;;;;;9.70;2.60;;;11.10;99.90;;;;;;5027053;28;20090;-81
2022/06/03 00:23:45;;;;;;;4.50;2.83;;;12.20;99.90;;;;;;5026273;28;20060;-81
2022/06/03 00:26:35;;;;;;;5.35;2.42;;;11.30;99.90;;;;;;5016286;28;20072;-81
2022/06/03 00:29:09;;;;;;;3.05;2.53;;;11.00;99.90;;;;;;5043597;28;20050;-81
2022/06/03 00:31:57;;;;;;;5.80;2.53;;;11.00;99.90;;;;;;5001964;28;20084;-80
2022/06/03 00:34:31;;;;;;;4.43;3.08;;;11.00;99.90;;;;;;5024550;28;20045;-80
2022/06/03 00:37:16;;;;;;;3.20;2.53;;;10.90;99.90;;;;;;5043220;28;20950;-78
2022/06/03 00:39:56;;;;;;;3.15;2.70;;;11.10;99.90;;;;;;5026004;28;20037;-80
2022/06/03 00:42:40;;;;;;;6.00;2.97;;;10.90;99.90;;;;;;5024956;28;20040;-80
2022/06/03 00:45:39;;;;;;;3.28;2.97;;;11.60;99.90;;;;;;5025225;28;20465;-81
2022/06/03 00:48:19;;;;;;;4.80;2.55;;;10.90;99.90;;;;;;5025461;28;20445;-81
2022/06/03 00:51:18;;;;;;;3.63;3.30;;;10.90;99.90;;;;;;5026283;28;20041;-80
2022/06/03 00:53:44;;;;;;;3.40;3.00;;;11.70;99.90;;;;;;5007870;28;20037;-80
2022/06/03 00:56:31;;;;;;;5.50;2.83;;;10.80;99.90;;;;;;5009553;28;20041;-78
2022/06/03 00:59:06;;;;;;;6.60;3.08;;;10.90;99.90;;;;;;5007703;28;20049;-78
2022/06/03 01:01:42;;;;;;;5.93;3.80;;;10.80;99.90;;;;;;5018966;28;20033;-79
2022/06/03 01:04:33;;;;;;;7.18;4.20;;;10.80;99.90;;;;;;5000825;28;20072;-77
2022/06/03 01:07:30;;;;;;;6.05;4.00;;;10.80;99.90;;;;;;5025573;28;20127;-80
2022/06/03 01:10:49;;;;;;;5.90;4.18;;;10.70;99.90;;;;;;5008298;28;20121;-78
2022/06/03 01:13:20;;;;;;;6.22;4.50;;;10.70;99.90;;;;;;4985222;28;20072;-80
2022/06/03 01:16:07;;;;;;;4.20;3.63;;;10.70;99.90;;;;;;4977702;28;20042;-80
2022/06/03 01:19:14;;;;;;;5.15;4.65;;;10.70;99.90;;;;;;4996792;28;20053;-79
2022/06/03 01:22:19;;;;;;;6.78;4.22;;;10.60;99.90;;;;;;5020271;28;20061;-79
2022/06/03 01:24:53;;;;;;;5.85;5.00;;;10.60;99.90;;;;;;5021537;28;20106;-78
2022/06/03 01:27:47;;;;;;;7.57;4.68;;;10.50;99.90;;;;;;5027778;28;20046;-81
2022/06/03 01:30:38;;;;;;;5.10;4.05;;;10.50;99.90;;;;;;5019756;28;20060;-79
2022/06/03 01:33:26;;;;;;;7.13;4.20;;;10.50;99.90;;;;;;5019677;28;20049;-78
2022/06/03 01:36:07;;;;;;;5.32;4.00;;;10.40;99.90;;;;;;5008178;28;20064;-81
2022/06/03 01:39:03;;;;;;;7.93;4.50;;;10.40;99.90;;;;;;5027715;28;20041;-81
2022/06/03 01:41:36;;;;;;;4.60;4.10;;;10.40;99.90;;;;;;5020835;28;20052;-81
2022/06/03 01:44:09;;;;;;;5.05;4.10;;;11.90;99.90;;;;;;5007627;28;20104;-80
2022/06/03 01:47:13;;;;;;;8.68;5.05;;;11.30;99.90;;;;;;5026317;28;20041;-77
2022/06/03 01:49:59;;;;;;;8.23;4.63;;;10.40;99.90;;;;;;5015135;28;20501;-80
2022/06/03 01:52:53;;;;;;;10.07;4.30;;;10.40;99.90;;;;;;5024117;28;20103;-80
2022/06/03 01:55:40;;;;;;;6.40;4.70;;;10.30;99.90;;;;;;5025984;28;20370;-80
2022/06/03 01:58:26;;;;;;;6.38;4.63;;;10.40;99.90;;;;;;5008434;28;20382;-78
2022/06/03 02:01:03;;;;;;;8.10;4.40;;;10.60;99.90;;;;;;5021582;28;20382;-78
2022/06/03 02:03:34;;;;;;;6.25;4.32;;;10.30;99.90;;;;;;5007574;28;20508;-80
2022/06/03 02:06:18;;;;;;;4.47;4.07;;;10.30;99.90;;;;;;5006226;28;20482;-81
2022/06/03 02:09:15;;;;;;;5.80;4.03;;;10.30;99.90;;;;;;5017690;28;20038;-80
2022/06/03 02:11:48;;;;;;;4.85;4.43;;;10.30;99.90;;;;;;5022974;28;20371;-77
2022/06/03 02:14:51;;;;;;;9.27;4.72;;;10.20;99.90;;;;;;5019376;28;20125;-80
2022/06/03 02:17:31;;;;;;;7.35;4.93;;;10.20;99.90;;;;;;5023999;28;20053;-80
2022/06/03 02:20:17;;;;;;;5.05;3.95;;;10.10;99.90;;;;;;5006996;28;20052;-80
2022/06/03 02:22:52;;;;;;;5.40;3.78;;;10.10;99.90;;;;;;5022081;28;20041;-79
2022/06/03 02:25:35;;;;;;;11.52;3.92;;;10.10;99.90;;;;;;5021649;28;20103;-78
2022/06/03 02:28:22;;;;;;;4.72;4.32;;;10.10;99.90;;;;;;5023174;28;20046;-80
2022/06/03 02:31:00;;;;;;;4.80;3.78;;;10.10;99.90;;;;;;5039826;28;20605;-81
2022/06/03 02:33:58;;;;;;;5.10;4.15;;;10.10;99.90;;;;;;5026430;28;20087;-80
2022/06/03 02:37:02;;;;;;;7.32;4.38;;;10.10;99.90;;;;;;5025674;28;20497;-80
2022/06/03 02:39:56;;;;;;;6.68;4.18;;;10.10;99.90;;;;;;5019126;28;20558;-79
2022/06/03 02:42:53;;;;;;;8.00;4.50;;;10.00;99.90;;;;;;5023232;28;20056;-81
2022/06/03 02:46:04;;;;;;;7.60;4.57;;;10.00;99.90;;;;;;5012485;28;20802;-80
2022/06/03 02:48:48;;;;;;;5.63;5.05;;;10.00;99.90;;;;;;5035220;28;20052;-81
2022/06/03 02:52:00;;;;;;;7.13;4.63;;;10.00;99.90;;;;;;5023767;28;20038;-80
2022/06/03 02:55:00;;;;;;;5.68;4.57;;;9.90;99.90;;;;;;5027819;28;20476;-81
2022/06/03 02:57:48;;;;;;;6.38;5.43;;;10.00;99.90;;;;;;5026284;28;20095;-81
2022/06/03 03:00:47;;;;;;;7.53;5.53;;;10.00;99.90;;;;;;5009341;28;20043;-81
2022/06/03 03:03:38;;;;;;;7.53;5.82;;;9.90;99.90;;;;;;5025868;28;20489;-80
2022/06/03 03:06:42;;;;;;;8.23;5.78;;;10.00;99.90;;;;;;5024888;28;20128;-81
2022/06/03 03:09:24;;;;;;;6.68;5.72;;;10.00;99.90;;;;;;5036933;28;20308;-80
2022/06/03 03:11:56;;;;;;;8.15;6.00;;;10.00;99.90;;;;;;5024419;28;20156;-78
2022/06/03 03:15:04;;;;;;;9.07;6.10;;;9.90;99.90;;;;;;5006806;28;20068;-78
2022/06/03 03:17:48;;;;;;;9.10;6.35;;;9.90;99.90;;;;;;5009561;28;20132;-77
2022/06/03 03:20:35;;;;;;;9.65;6.35;;;10.40;99.90;;;;;;4994218;28;20046;-78
2022/06/03 03:23:05;;;;;;;8.52;6.35;;;9.80;99.90;;;;;;5017237;28;20041;-78
2022/06/03 03:25:58;;;;;;;7.15;5.95;;;9.80;99.90;;;;;;5020305;28;20072;-78
2022/06/03 03:28:45;;;;;;;9.57;6.80;;;9.80;99.90;;;;;;5019074;28;20544;-80
2022/06/03 03:31:47;;;;;;;9.13;6.70;;;11.10;99.90;;;;;;5022147;28;20242;-78
2022/06/03 03:34:46;;;;;;;9.55;7.35;;;9.80;99.90;;;;;;5007241;28;20052;-81
2022/06/03 03:37:18;;;;;;;7.78;6.78;;;9.80;99.90;;;;;;5026376;28;20598;-80
2022/06/03 03:40:17;;;;;;;8.80;7.70;;;9.80;99.90;;;;;;5009757;28;20053;-80
2022/06/03 03:43:07;;;;;;;8.45;7.00;;;9.70;99.90;;;;;;5007948;28;20073;-81
2022/06/03 03:45:48;;;;;;;8.32;7.28;;;9.70;99.90;;;;;;5026480;28;20099;-79
2022/06/03 03:48:32;;;;;;;9.85;7.18;;;9.70;99.90;;;;;;5009362;28;20049;-81
2022/06/03 03:51:29;;;;;;;9.00;7.18;;;9.80;99.90;;;;;;5026714;28;20349;-79
2022/06/03 03:54:16;;;;;;;9.68;7.38;;;9.70;99.90;;;;;;5024129;28;20045;-78
2022/06/03 03:57:02;;;;;;;6.85;6.28;;;9.80;99.90;;;;;;5022041;28;20052;-80
2022/06/03 04:00:04;;;;;;;7.15;6.45;;;9.70;99.90;;;;;;5022663;28;20045;-80
2022/06/03 04:02:33;;;;;;;7.72;6.45;;;9.80;99.90;;;;;;5024899;28;20045;-77
2022/06/03 04:05:36;;;;;;;9.90;6.55;;;9.70;99.90;;;;;;5024792;28;20057;-79
2022/06/03 04:08:30;;;;;;;8.95;6.47;;;9.80;99.90;;;;;;5022396;28;20125;-81
2022/06/03 04:11:29;;;;;;;9.38;6.95;;;9.80;99.90;;;;;;5015933;28;20052;-81
2022/06/03 04:13:58;;;;;;;8.05;5.78;;;9.80;99.90;;;;;;5030237;28;20350;-81
2022/06/03 04:16:36;;;;;;;9.77;6.88;;;9.90;99.90;;;;;;5022560;28;20077;-79
2022/06/03 04:19:17;;;;;;;8.15;6.70;;;9.80;99.90;;;;;;5027347;28;20037;-81
2022/06/03 04:22:39;;;;;;;12.23;6.07;;;9.90;99.90;;;;;;5009483;28;20041;-81
2022/06/03 04:25:39;;;;;;;10.88;5.70;;;9.90;99.90;;;;;;4970450;28;20042;-80
2022/06/03 04:28:33;;;;;;;8.55;6.70;;;10.00;99.90;;;;;;4968613;28;20038;-80
2022/06/03 04:31:37;;;;;;;12.50;6.50;;;10.00;99.90;;;;;;5027394;28;20428;-81
2022/06/03 04:34:22;;;;;;;8.63;6.30;;;10.00;99.90;;;;;;5011457;28;20048;-80
2022/06/03 04:37:20;;;;;;;9.60;6.85;;;10.00;99.90;;;;;;5027067;28;20073;-79
2022/06/03 04:40:23;;;;;;;11.65;6.75;;;10.00;99.90;;;;;;5010885;28;20120;-80
2022/06/03 04:43:26;;;;;;;10.30;5.90;;;10.00;99.90;;;;;;5010096;28;20046;-79
2022/06/03 04:46:30;;;;;;;8.15;6.10;;;10.10;99.90;;;;;;5036506;28;20049;-80
2022/06/03 04:49:15;;;;;;;9.60;6.70;;;10.10;99.90;;;;;;5026309;28;20049;-80
2022/06/03 04:51:59;;;;;;;7.53;5.18;;;11.60;99.90;;;;;;5017949;28;20115;-79
2022/06/03 04:54:50;;;;;;;9.75;6.38;;;10.20;99.90;;;;;;5027255;28;20073;-81
2022/06/03 04:57:33;;;;;;;10.13;5.75;;;10.20;99.90;;;;;;5026108;28;20044;-80
2022/06/03 05:00:13;;;;;;;6.40;5.25;;;10.20;99.90;;;;;;5016686;28;20432;-82
2022/06/03 05:02:56;;;;;;;5.88;5.38;;;10.30;99.90;;;;;;5024217;28;20128;-80
2022/06/03 05:05:34;;;;;;;9.68;4.97;;;10.30;99.90;;;;;;5024653;28;20049;-80
2022/06/03 05:08:19;;;;;;;5.68;4.82;;;10.40;99.90;;;;;;5026918;28;20064;-80
2022/06/03 05:10:53;;;;;;;10.80;5.65;;;10.40;99.90;;;;;;5024000;28;20059;-81
2022/06/03 05:13:37;;;;;;;6.93;4.88;;;10.40;99.90;;;;;;5026144;28;20057;-81
2022/06/03 05:16:28;;;;;;;7.60;5.07;;;10.40;99.90;;;;;;5026035;28;20486;-80
2022/06/03 05:18:54;;;;;;;8.98;4.88;;;10.40;99.90;;;;;;5010422;28;20842;-81
2022/06/03 05:21:41;;;;;;;10.65;5.25;;;10.70;99.90;;;;;;5009153;28;20038;-83
2022/06/03 05:24:34;;;;;;;7.10;5.10;;;10.60;99.90;;;;;;5026414;28;20107;-83
2022/06/03 05:27:24;;;;;;;9.05;4.95;;;10.60;99.90;;;;;;4331061;28;10001529;-83
2022/06/03 05:30:19;;;;;;;5.10;4.50;;;10.70;99.90;;;;;;5002431;28;20045;-85
2022/06/03 05:33:09;;;;;;;8.57;4.95;;;10.70;99.90;;;;;;5023132;28;20053;-85
2022/06/03 05:35:58;;;;;;;9.60;5.57;;;10.70;99.90;;;;;;5025344;28;20045;-87
2022/06/03 05:38:51;;;;;;;9.70;4.95;;;10.80;99.90;;;;;;5006845;28;20112;-85
2022/06/03 05:44:48;;;;;;;7.35;4.82;;;10.90;99.90;;;;;;5019905;28;20057;-83
2022/06/03 05:47:24;;;;;;;6.82;4.55;;;11.00;99.90;;;;;;5004091;28;20042;-81
2022/06/03 05:50:33;;;;;;;10.70;4.43;;;11.10;99.90;;;;;;5020072;28;20042;-76
2022/06/03 05:53:14;;;;;;;7.90;4.18;;;11.10;99.90;;;;;;4993849;28;20053;-76
2022/06/03 05:56:17;;;;;;;8.38;4.35;;;11.20;99.90;;;;;;5019886;28;20043;-81
2022/06/03 05:58:53;;;;;;;5.28;4.15;;;11.20;99.90;;;;;;5023505;28;20093;-82
2022/06/03 06:01:37;;;;;;;7.13;3.67;;;11.30;99.90;;;;;;5025227;28;20493;-81
2022/06/03 06:04:49;;;;;;;5.47;2.83;;;11.40;99.90;;;;;;5020916;28;20681;-77
2022/06/03 06:07:33;;;;;;;5.97;3.35;;;12.50;99.90;;;;;;5024862;28;20092;-80
2022/06/03 06:10:10;;;;;;;4.60;3.20;;;11.50;99.90;;;;;;5021891;28;20120;-81
2022/06/03 06:12:59;;;;;;;4.35;2.80;;;11.60;99.90;;;;;;5017691;28;20049;-78
2022/06/03 06:15:28;;;;;;;4.70;2.20;;;11.70;99.90;;;;;;5017776;28;20037;-80
2022/06/03 06:18:04;;;;;;;3.72;2.25;;;12.90;99.90;;;;;;5007293;28;20179;-79
2022/06/03 06:20:55;;;;;;;2.35;1.80;;;11.80;99.90;;;;;;5025074;28;20043;-81
2022/06/03 06:23:38;;;;;;;3.90;1.67;;;11.90;99.90;;;;;;5006963;28;20122;-78
2022/06/03 06:26:17;;;;;;;2.35;1.52;;;12.00;99.90;;;;;;5023089;28;20061;-80
2022/06/03 06:29:09;;;;;;;2.65;1.20;;;12.10;99.90;;;;;;5025129;28;20052;-83
2022/06/03 06:32:08;;;;;;;5.38;1.85;;;12.20;99.90;;;;;;5036045;28;20081;-78
2022/06/03 06:35:14;;;;;;;6.65;1.38;;;12.30;99.90;;;;;;5026739;28;20081;-81
2022/06/03 06:37:48;;;;;;;;;;;12.30;99.90;;;;;;5035331;28;20057;-77
2022/06/03 06:40:21;;;;;;;4.60;0.98;;;12.40;99.90;;;;;;5029904;28;19921;-78
2022/06/03 06:43:30;;;;;;;4.75;1.15;;;12.50;99.90;;;;;;5012520;28;20041;-77
2022/06/03 06:46:04;;;;;;;2.42;1.13;;;12.60;99.90;;;;;;5009206;28;20045;-79
2022/06/03 06:48:38;;;;;;;3.17;1.00;;;14.00;99.90;;;;;;5014024;28;20038;-79
2022/06/03 06:51:41;;;;;;;2.33;1.90;;;12.70;99.90;;;;;;5007457;28;20442;-78
2022/06/03 06:54:24;;;;;;;0.68;0.52;;;12.90;99.90;;;;;;5032049;28;20172;-79
2022/06/03 06:57:06;;;;;;;3.38;0.90;;;13.00;99.90;;;;;;5029798;28;20070;-78
2022/06/03 06:59:35;;;;;;;1.98;0.80;;;13.10;99.90;;;;;;5025008;28;20065;-79
2022/06/03 07:02:15;;;;;;;1.75;0.80;;;13.80;99.90;;;;;;5013027;28;20093;-79
2022/06/03 07:05:02;;;;;;;3.42;1.00;;;13.20;99.90;;;;;;5012866;28;20053;-77
2022/06/03 07:08:08;;;;;;;3.30;0.98;;;13.30;99.90;;;;;;5030983;28;20065;-78
2022/06/03 07:10:49;;;;;;;0.88;0.60;;;13.30;99.90;;;;;;5012440;28;20478;-78
2022/06/03 07:13:45;;;;;;;3.72;0.82;;;13.40;99.90;;;;;;5028262;28;20637;-80
2022/06/03 07:19:48;;;;;;;3.00;1.10;;;13.50;99.90;;;;;;5026043;28;20041;-81
2022/06/03 07:22:38;;;;;;;7.20;1.13;;;13.50;99.90;;;;;;5028440;28;20041;-80
2022/06/03 07:25:15;;;;;;;3.55;1.27;;;13.70;99.90;;;;;;5004566;28;20076;-81
2022/06/03 07:27:44;;;;;;;3.33;1.20;;;13.80;99.90;;;;;;5005939;28;20041;-79
2022/06/03 07:30:19;;;;;;;7.07;1.48;;;13.80;99.90;;;;;;5027957;28;20033;-78
2022/06/03 07:32:49;;;;;;;3.95;1.25;;;13.90;99.90;;;;;;5025556;28;20053;-79
2022/06/03 07:35:30;;;;;;;4.28;0.85;;;14.10;99.90;;;;;;5021045;28;20129;-78
2022/06/03 07:38:06;;;;;;;2.35;1.08;;;14.00;99.90;;;;;;5018690;28;20041;-79
2022/06/03 07:40:43;;;;;;;4.43;1.13;;;14.10;99.90;;;;;;5021565;28;20053;-79
2022/06/03 07:43:49;;;;;;;2.67;0.95;;;14.20;99.90;;;;;;5011913;28;20095;-80
2022/06/03 07:46:19;;;;;;;2.15;0.90;;;14.20;99.90;;;;;;5025146;28;20052;-79
2022/06/03 07:48:45;;;;;;;1.30;0.68;;;14.20;99.90;;;;;;5004821;28;20091;-79
2022/06/03 07:51:31;;;;;;;1.67;0.68;;;14.20;99.90;;;;;;5027776;28;20037;-77
2022/06/03 07:54:22;;;;;;;1.67;0.57;;;14.30;99.90;;;;;;5026198;28;20337;-81
2022/06/03 07:56:47;;;;;;;2.45;0.60;;;14.50;99.90;;;;;;5011288;28;20060;-81
2022/06/03 07:59:19;;;;;;;2.35;0.73;;;14.70;99.90;;;;;;5008603;28;20485;-81
2022/06/03 08:02:02;;;;;;;1.95;0.85;;;14.70;99.90;;;;;;5025294;28;20152;-81
2022/06/03 08:04:34;;;;;;;5.22;0.90;;;14.80;99.90;;;;;;5022357;28;20049;-81
2022/06/03 08:12:38;;;;;;;1.15;0.50;;;14.90;99.90;;;;;;5026281;28;20045;-80
2022/06/03 08:15:19;;;;;;;1.80;0.88;;;15.10;99.90;;;;;;5011945;28;20046;-80
2022/06/03 08:17:47;;;;;;;2.30;0.43;;;15.10;99.90;;;;;;5011925;28;20041;-81
2022/06/03 08:20:19;;;;;;;3.72;0.52;;;15.20;99.90;;;;;;5028037;28;20049;-81
2022/06/03 08:22:46;;;;;;;1.65;0.30;;;15.30;99.90;;;;;;5026977;28;20045;-81
2022/06/03 08:25:17;;;;;;;2.83;0.60;;;15.30;99.90;;;;;;5030032;28;20049;-82
2022/06/03 08:27:44;;;;;;;1.55;0.45;;;15.40;99.90;;;;;;5027132;28;20057;-80
2022/06/03 08:30:14;;;;;;;2.75;0.70;;;15.40;99.90;;;;;;5029440;28;20037;-81
2022/06/03 08:32:55;;;;;;;2.47;0.70;;;15.40;99.90;;;;;;5010140;28;20037;-82
2022/06/03 08:35:27;;;;;;;2.92;0.50;;;15.70;99.90;;;;;;5004625;28;20045;-81
2022/06/03 08:38:19;;;;;;;1.65;0.73;;;15.50;99.90;;;;;;5027450;28;20435;-79
2022/06/03 08:41:02;;;;;;;0.80;0.40;;;15.60;99.90;;;;;;5007763;28;20053;-80
2022/06/03 08:43:39;;;;;;;1.42;0.52;;;15.70;99.90;;;;;;5018452;28;20057;-80
2022/06/03 08:46:14;;;;;;;2.17;0.70;;;15.90;99.90;;;;;;5025722;28;20040;-80
2022/06/03 08:48:42;;;;;;;4.63;1.00;;;15.90;99.90;;;;;;5022995;28;20061;-81
2022/06/03 08:51:25;;;;;;;3.33;0.98;;;15.90;99.90;;;;;;5023445;28;20129;-78
2022/06/03 08:54:18;;;;;;;1.55;0.57;;;15.90;99.90;;;;;;5023967;28;20135;-81
2022/06/03 08:56:55;;;;;;;4.13;1.35;;;16.00;99.90;;;;;;5023425;28;20080;-81
2022/06/03 08:59:31;;;;;;;0.85;0.60;;;16.10;99.90;;;;;;5002870;28;20057;-83
2022/06/03 09:01:59;;;;;;;2.80;0.80;;;16.70;99.90;;;;;;5023562;28;20100;-79
2022/06/03 09:04:33;;;;;;;4.05;0.75;;;16.20;99.90;;;;;;5022822;28;20042;-79
2022/06/03 09:07:04;;;;;;;0.52;0.50;;;16.40;99.90;;;;;;5026860;28;20055;-78
2022/06/03 09:09:33;;;;;;;4.85;1.02;;;16.40;99.90;;;;;;5007657;28;20128;-77
2022/06/03 09:12:01;;;;;;;3.78;1.13;;;16.50;99.90;;;;;;5026115;28;20041;-78
2022/06/03 09:14:28;;;;;;;1.77;1.00;;;16.70;99.90;;;;;;5007322;28;20041;-78
2022/06/03 09:17:03;;;;;;;2.30;1.08;;;16.80;99.90;;;;;;5025899;28;20045;-81
2022/06/03 09:19:34;;;;;;;1.75;0.93;;;16.80;99.90;;;;;;5026440;28;20045;-81
2022/06/03 09:22:10;;;;;;;3.00;1.08;;;16.90;99.90;;;;;;5010024;28;20068;-80
2022/06/03 09:24:40;;;;;;;2.60;0.70;;;16.90;99.90;;;;;;5027450;28;20146;-78
2022/06/03 09:27:08;;;;;;;5.13;0.60;;;17.00;99.90;;;;;;5027864;28;20046;-76
2022/06/03 09:29:34;;;;;;;2.30;1.08;;;17.00;99.90;;;;;;5029268;28;20492;-80
2022/06/03 09:32:06;;;;;;;6.00;0.75;;;17.10;99.90;;;;;;5025439;28;20049;-81
2022/06/03 09:34:48;;;;;;;3.17;1.00;;;17.30;99.90;;;;;;5027755;28;20045;-81
2022/06/03 09:37:38;;;;;;;2.42;0.98;;;17.30;99.90;;;;;;5028362;28;20045;-81
2022/06/03 09:40:08;;;;;;;3.15;1.00;;;17.40;99.90;;;;;;5027212;28;20056;-82
2022/06/03 09:42:35;;;;;;;1.58;1.10;;;17.60;99.90;;;;;;5011126;28;20069;-81
2022/06/03 09:45:05;;;;;;;3.30;1.10;;;17.70;99.90;;;;;;5043719;28;20579;-83
2022/06/03 09:47:32;;;;;;;3.25;0.98;;;17.70;99.90;;;;;;5024817;28;20083;-82
2022/06/03 09:49:58;;;;;;;4.22;1.58;;;17.90;99.90;;;;;;5005937;28;20060;-79
2022/06/03 09:52:26;;;;;;;3.13;1.45;;;17.90;99.90;;;;;;5026661;28;20428;-78
2022/06/03 09:54:55;;;;;;;1.58;1.15;;;18.00;99.90;;;;;;5025810;28;20156;-81
2022/06/03 09:57:29;;;;;;;2.70;1.00;;;18.10;99.90;;;;;;5028460;28;20116;-80
2022/06/03 09:59:59;;;;;;;2.45;1.30;;;18.20;99.90;;;;;;5027346;28;20057;-81
2022/06/03 10:02:26;;;;;;;2.88;0.82;;;18.30;99.90;;;;;;5027081;28;20162;-77
2022/06/03 10:04:53;;;;;;;1.50;0.98;;;18.30;99.90;;;;;;5025396;28;20056;-83
2022/06/03 10:07:19;;;;;;;2.38;1.10;;;18.50;99.90;;;;;;5010646;28;20176;-82
2022/06/03 10:12:50;;;;;;;3.08;1.27;;;18.50;99.90;;;;;;5027849;28;20049;-82
2022/06/03 10:15:38;;;;;;;2.78;1.20;;;18.50;99.90;;;;;;5025451;28;20049;-77
2022/06/03 10:18:23;;;;;;;2.65;1.23;;;18.50;99.90;;;;;;5010453;28;20037;-77
2022/06/03 10:20:52;;;;;;;2.60;0.95;;;18.50;99.90;;;;;;5025800;28;20092;-82
2022/06/03 10:23:24;;;;;;;3.03;1.15;;;18.60;99.90;;;;;;5010264;28;20496;-80
2022/06/03 10:25:51;;;;;;;10.93;1.65;;;18.80;99.90;;;;;;5026095;28;20083;-81
2022/06/03 10:28:20;;;;;;;5.90;1.13;;;18.80;99.90;;;;;;4994896;28;20041;-80
2022/06/03 10:30:58;;;;;;;4.95;1.45;;;18.90;99.90;;;;;;5027006;28;20156;-76
2022/06/03 10:33:24;;;;;;;2.03;0.88;;;18.90;99.90;;;;;;5024303;28;20053;-79
2022/06/03 10:35:50;;;;;;;0.88;0.85;;;18.90;99.90;;;;;;5023416;28;20041;-79
2022/06/03 10:38:19;;;;;;;7.10;1.00;;;19.40;99.90;;;;;;5026477;28;20413;-79
2022/06/03 10:40:51;;;;;;;0.60;0.60;;;19.20;99.90;;;;;;5007958;28;20170;-78
2022/06/03 10:43:27;;;;;;;2.95;0.95;;;19.60;99.90;;;;;;5007772;28;20051;-80
2022/06/03 10:46:08;;;;;;;2.97;0.93;;;19.50;99.90;;;;;;5027477;28;20053;-79
2022/06/03 10:48:35;;;;;;;1.35;0.75;;;19.60;99.90;;;;;;5027121;28;20045;-79
2022/06/03 11:01:06;;;;;;;1.88;1.00;;;19.70;99.90;;;;;;5027375;28;20489;-79
2022/06/03 11:02:42;;;;;;;4.43;0.75;;;20.00;99.90;;;;;;5025773;28;20049;-78
2022/06/03 11:05:25;;;;;;;1.95;0.60;;;19.90;99.90;;;;;;5025745;28;20056;-78
2022/06/03 11:08:08;;;;;;;3.22;0.70;;;20.10;99.90;;;;;;5025009;28;20053;-77
2022/06/03 11:10:48;;;;;;;4.75;1.30;;;20.20;99.90;;;;;;5024904;28;20143;-79
2022/06/03 11:13:31;;;;;;;4.55;1.50;;;21.00;99.90;;;;;;5006152;28;20128;-80
2022/06/03 11:16:28;;;;;;;5.72;0.90;;;20.40;99.90;;;;;;5021913;28;20066;-79
2022/06/03 11:18:54;;;;;;;2.65;0.82;;;20.40;99.90;;;;;;5010968;28;20041;-80
2022/06/03 11:21:27;;;;;;;2.63;1.10;;;20.40;99.90;;;;;;5023907;28;20125;-78
2022/06/03 11:23:56;;;;;;;0.90;0.80;;;20.50;99.90;;;;;;5029409;28;20041;-79
2022/06/03 11:26:40;;;;;;;1.20;0.70;;;20.60;99.90;;;;;;5010943;28;20108;-79
2022/06/03 11:29:15;;;;;;;1.40;1.00;;;20.70;99.80;;;;;;5011617;28;20092;-78
2022/06/03 11:31:45;;;;;;;1.85;0.60;;;20.80;99.40;;;;;;5012647;28;20049;-78
2022/06/03 11:34:23;;;;;;;1.02;0.68;;;20.90;99.70;;;;;;5028619;28;20094;-77
2022/06/03 11:36:58;;;;;;;0.82;0.80;;;20.80;99.10;;;;;;5024575;28;20049;-79
2022/06/03 11:39:26;;;;;;;1.13;0.77;;;20.80;97.90;;;;;;5028795;28;20025;-80
2022/06/03 11:42:15;;;;;;;4.55;1.10;;;20.90;98.00;;;;;;5030022;28;20053;-77
2022/06/03 11:44:50;;;;;;;2.15;1.00;;;21.10;97.70;;;;;;5012200;28;20129;-78
2022/06/03 11:47:51;;;;;;;2.35;0.82;;;21.10;97.40;;;;;;5030647;28;20072;-79
2022/06/03 11:50:23;;;;;;;4.28;1.00;;;21.30;96.70;;;;;;5012408;28;20520;-81
2022/06/03 11:52:50;;;;;;;2.35;0.70;;;21.40;96.60;;;;;;5029333;28;20089;-81
2022/06/03 11:55:21;;;;;;;1.65;0.60;;;21.50;95.90;;;;;;5028682;28;20046;-80
2022/06/03 11:58:10;;;;;;;4.85;0.90;;;21.50;95.20;;;;;;5030850;28;20073;-79
2022/06/03 12:00:43;;;;;;;1.25;0.80;;;21.60;95.20;;;;;;5024063;28;20058;-79
2022/06/03 12:03:40;;;;;;;1.75;0.73;;;21.70;95.60;;;;;;5029561;28;20099;-79
2022/06/03 12:06:18;;;;;;;1.23;0.90;;;21.80;95.10;;;;;;4996365;28;20049;-79
2022/06/03 12:08:47;;;;;;;3.95;0.73;;;22.00;94.70;;;;;;5024602;28;20533;-80
2022/06/03 12:14:25;;;;;;;1.73;0.82;;;22.20;93.40;;;;;;5044054;28;20050;-80
2022/06/03 12:16:57;;;;;;;2.80;0.90;;;22.30;93.50;;;;;;5027522;28;20052;-80
2022/06/03 12:19:55;;;;;;;2.55;0.70;;;22.30;93.10;;;;;;5026482;28;20048;-80
2022/06/03 12:22:30;;;;;;;4.20;0.70;;;22.30;89.50;;;;;;5000907;28;20068;-81
2022/06/03 12:25:01;;;;;;;0.63;0.63;;;22.20;89.70;;;;;;5027101;28;20103;-79
2022/06/03 12:27:32;;;;;;;1.00;0.70;;;22.20;90.60;;;;;;5020034;28;20536;-80
2022/06/03 12:30:18;;;;;;;1.70;0.80;;;22.30;90.70;;;;;;5026926;28;20049;-79
2022/06/03 12:33:03;;;;;;;3.00;0.73;;;22.40;89.60;;;;;;5028570;28;20055;-79
2022/06/03 12:35:50;;;;;;;0.95;0.50;;;22.50;89.70;;;;;;5027316;28;20053;-80
2022/06/03 12:38:22;;;;;;;1.20;0.70;;;22.50;87.80;;;;;;5027377;28;20493;-79
2022/06/03 12:40:50;;;;;;;1.33;0.75;;;22.70;88.70;;;;;;5027131;28;20057;-81
2022/06/03 12:43:28;;;;;;;0.77;0.50;;;22.70;87.90;;;;;;5025890;28;20037;-78
2022/06/03 12:45:58;;;;;;;0.80;0.60;;;22.80;86.60;;;;;;5027081;28;20075;-78
2022/06/03 12:48:35;;;;;;;1.30;0.35;;;22.90;86.30;;;;;;5028510;28;20128;-79
2022/06/03 12:51:24;;;;;;;0.63;0.45;;;22.90;86.40;;;;;;5026617;28;20846;-77
2022/06/03 12:53:58;;;;;;;1.55;0.75;;;23.00;87.80;;;;;;5024270;28;20124;-78
2022/06/03 12:56:41;;;;;;;4.00;0.60;;;23.10;86.20;;;;;;5028459;28;20044;-78
2022/06/03 12:59:21;;;;;;;2.40;0.57;;;23.20;85.90;;;;;;4995481;28;20037;-77
2022/06/03 13:01:52;;;;;;;0.98;0.63;;;23.20;87.00;;;;;;5025837;28;20037;-82
2022/06/03 13:04:38;;;;;;;2.15;0.50;;;23.30;86.90;;;;;;5010204;28;20053;-82
2022/06/03 13:07:15;;;;;;;3.28;0.80;;;23.40;86.50;;;;;;5010687;28;20133;-81
2022/06/03 13:10:18;;;;;;;1.98;0.82;;;23.40;87.20;;;;;;5025634;28;20075;-79
2022/06/03 13:12:50;;;;;;;1.25;0.50;;;23.40;83.40;;;;;;5026371;28;20368;-80
2022/06/03 13:15:21;;;;;;;2.15;0.55;;;23.30;82.00;;;;;;5028056;28;20041;-80
2022/06/03 13:18:10;;;;;;;6.88;0.80;;;23.20;85.30;;;;;;5027465;28;20053;-73
2022/06/03 13:20:54;;;;;;;3.67;0.52;;;23.10;85.10;;;;;;5028796;28;20172;-75
2022/06/03 13:23:20;;;;;;;5.03;0.60;;;22.90;86.90;;;;;;5023150;28;20044;-76
2022/06/03 13:25:47;;;;;;;1.02;0.60;;;22.70;87.90;;;;;;5025968;28;20033;-77
2022/06/03 13:28:35;;;;;;;3.75;0.77;;;22.80;88.00;;;;;;5027159;28;20049;-73
2022/06/03 13:31:17;;;;;;;6.85;0.93;;;22.90;88.60;;;;;;5008752;28;20478;-76
2022/06/03 13:34:14;;;;;;;1.75;0.60;;;23.10;88.70;;;;;;5021562;28;20045;-75
2022/06/03 13:36:49;;;;;;;3.53;0.90;;;23.10;89.90;;;;;;5026338;28;20120;-80
2022/06/03 13:39:24;;;;;;;1.13;0.90;;;22.90;87.10;;;;;;5024226;28;20038;-81
2022/06/03 13:44:46;;;;;;;1.67;0.75;;;22.80;89.80;;;;;;5020552;28;20056;-76
2022/06/03 13:47:22;;;;;;;1.58;0.43;;;22.80;89.60;;;;;;5017463;28;20049;-79
2022/06/03 13:50:12;;;;;;;2.00;0.68;;;22.80;90.10;;;;;;5027186;28;20038;-75
2022/06/03 13:52:40;;;;;;;9.65;0.50;;;22.80;90.10;;;;;;5009341;28;20049;-81
2022/06/03 13:55:14;;;;;;;2.00;0.63;;;22.70;90.60;;;;;;5023895;28;20465;-82
2022/06/03 13:57:42;;;;;;;2.45;0.50;;;22.80;90.70;;;;;;5025135;28;20107;-75
2022/06/03 14:00:29;;;;;;;3.35;0.65;;;22.80;90.20;;;;;;5007162;28;20083;-78
2022/06/03 14:03:04;;;;;;;2.50;0.80;;;22.70;89.90;;;;;;5020308;28;20046;-73
2022/06/03 14:05:36;;;;;;;2.65;0.73;;;22.80;89.70;;;;;;5027887;28;20081;-77
2022/06/03 14:08:09;;;;;;;2.75;0.60;;;22.70;89.40;;;;;;5019609;28;21660;-74
2022/06/03 14:11:10;;;;;;;2.50;0.30;;;22.80;89.10;;;;;;5023407;28;20103;-76
2022/06/03 14:13:42;;;;;;;2.17;0.55;;;22.70;90.00;;;;;;5027681;28;20045;-78
2022/06/03 14:16:28;;;;;;;3.28;0.70;;;22.70;88.90;;;;;;5022205;28;20101;-81
2022/06/03 14:19:20;;;;;;;3.25;0.68;;;22.70;87.90;;;;;;5037736;28;20409;-83
2022/06/03 14:21:53;;;;;;;1.17;0.32;;;22.70;88.80;;;;;;5022549;28;20501;-81
2022/06/03 14:24:25;;;;;;;4.13;0.40;;;22.80;88.60;;;;;;5011127;28;20060;-81
2022/06/03 14:26:53;;;;;;;2.72;0.30;;;22.70;88.40;;;;;;5009344;28;20049;-81
2022/06/03 14:29:37;;;;;;;2.47;0.50;;;22.60;88.50;;;;;;5009247;28;20056;-82
2022/06/03 14:32:13;;;;;;;2.63;0.40;;;22.60;88.20;;;;;;5010107;28;20038;-81
2022/06/03 14:34:42;;;;;;;1.77;0.35;;;22.70;86.70;;;;;;5019218;28;20513;-82